sensor_id;sensor_type;location;lat;lon;timestamp;P1;durP1;ratioP1;P2;durP2;ratioP2
5774;SDS011;2913;51.120;6.772;2022-09-06T00:00:59;11.23;;;5.07;;
5774;SDS011;2913;51.120;6.772;2022-09-06T00:03:25;11.68;;;5.60;;
5774;SDS011;2913;51.120;6.772;2022-09-06T00:05:53;17.00;;;5.28;;
5774;SDS011;2913;51.120;6.772;2022-09-06T00:08:19;13.98;;;4.75;;
5774;SDS011;2913;51.120;6.772;2022-09-06T00:10:44;13.35;;;4.80;;
5774;SDS011;2913;51.120;6.772;2022-09-06T00:13:10;15.52;;;4.82;;
5774;SDS011;2913;51.120;6.772;2022-09-06T00:15:37;10.75;;;4.63;;
5774;SDS011;2913;51.120;6.772;2022-09-06T00:18:07;11.95;;;4.40;;
5774;SDS011;2913;51.120;6.772;2022-09-06T00:20:33;13.63;;;4.50;;
5774;SDS011;2913;51.120;6.772;2022-09-06T00:23:01;16.15;;;4.68;;
5774;SDS011;2913;51.120;6.772;2022-09-06T00:25:31;12.55;;;4.47;;
5774;SDS011;2913;51.120;6.772;2022-09-06T00:28:01;20.52;;;4.15;;
5774;SDS011;2913;51.120;6.772;2022-09-06T00:30:29;12.32;;;4.78;;
5774;SDS011;2913;51.120;6.772;2022-09-06T00:32:56;19.08;;;5.30;;
5774;SDS011;2913;51.120;6.772;2022-09-06T00:35:25;14.20;;;4.45;;
5774;SDS011;2913;51.120;6.772;2022-09-06T00:37:55;17.02;;;5.32;;
5774;SDS011;2913;51.120;6.772;2022-09-06T00:40:22;14.95;;;4.78;;
5774;SDS011;2913;51.120;6.772;2022-09-06T00:42:47;26.67;;;5.55;;
5774;SDS011;2913;51.120;6.772;2022-09-06T00:45:16;14.73;;;5.00;;
5774;SDS011;2913;51.120;6.772;2022-09-06T00:47:42;24.10;;;4.95;;
5774;SDS011;2913;51.120;6.772;2022-09-06T00:50:09;24.33;;;5.50;;
5774;SDS011;2913;51.120;6.772;2022-09-06T00:52:37;23.48;;;5.65;;
5774;SDS011;2913;51.120;6.772;2022-09-06T00:55:04;17.85;;;5.57;;
5774;SDS011;2913;51.120;6.772;2022-09-06T00:57:30;24.48;;;6.38;;
5774;SDS011;2913;51.120;6.772;2022-09-06T00:59:56;26.45;;;5.40;;
5774;SDS011;2913;51.120;6.772;2022-09-06T01:02:27;22.45;;;5.75;;
5774;SDS011;2913;51.120;6.772;2022-09-06T01:04:52;19.45;;;6.13;;
5774;SDS011;2913;51.120;6.772;2022-09-06T01:10:02;28.27;;;5.68;;
5774;SDS011;2913;51.120;6.772;2022-09-06T01:28:45;16.05;;;6.57;;
5774;SDS011;2913;51.120;6.772;2022-09-06T01:36:30;24.35;;;6.88;;
5774;SDS011;2913;51.120;6.772;2022-09-06T01:39:22;10.65;;;6.30;;
5774;SDS011;2913;51.120;6.772;2022-09-06T01:41:50;18.13;;;6.97;;
5774;SDS011;2913;51.120;6.772;2022-09-06T01:44:18;15.82;;;6.60;;
5774;SDS011;2913;51.120;6.772;2022-09-06T02:08:00;22.70;;;6.50;;
5774;SDS011;2913;51.120;6.772;2022-09-06T02:10:44;21.20;;;6.32;;
5774;SDS011;2913;51.120;6.772;2022-09-06T02:13:15;22.75;;;6.20;;
5774;SDS011;2913;51.120;6.772;2022-09-06T02:15:48;17.85;;;6.97;;
5774;SDS011;2913;51.120;6.772;2022-09-06T02:18:19;13.25;;;6.47;;
5774;SDS011;2913;51.120;6.772;2022-09-06T02:20:52;19.90;;;6.53;;
5774;SDS011;2913;51.120;6.772;2022-09-06T02:23:21;15.75;;;6.57;;
5774;SDS011;2913;51.120;6.772;2022-09-06T02:25:53;18.38;;;6.93;;
5774;SDS011;2913;51.120;6.772;2022-09-06T02:28:22;23.55;;;6.40;;
5774;SDS011;2913;51.120;6.772;2022-09-06T02:30:49;20.80;;;7.18;;
5774;SDS011;2913;51.120;6.772;2022-09-06T02:33:26;15.20;;;6.07;;
5774;SDS011;2913;51.120;6.772;2022-09-06T02:35:55;19.00;;;7.25;;
5774;SDS011;2913;51.120;6.772;2022-09-06T02:38:28;9.63;;;5.70;;
5774;SDS011;2913;51.120;6.772;2022-09-06T02:40:55;10.32;;;6.82;;
5774;SDS011;2913;51.120;6.772;2022-09-06T02:43:20;15.10;;;7.35;;
5774;SDS011;2913;51.120;6.772;2022-09-06T02:45:48;11.63;;;6.88;;
5774;SDS011;2913;51.120;6.772;2022-09-06T02:48:14;12.05;;;6.50;;
5774;SDS011;2913;51.120;6.772;2022-09-06T02:50:39;18.67;;;6.45;;
5774;SDS011;2913;51.120;6.772;2022-09-06T02:53:08;16.13;;;6.63;;
5774;SDS011;2913;51.120;6.772;2022-09-06T02:55:36;13.23;;;6.30;;
5774;SDS011;2913;51.120;6.772;2022-09-06T02:58:02;17.85;;;7.20;;
5774;SDS011;2913;51.120;6.772;2022-09-06T03:00:29;17.08;;;6.82;;
5774;SDS011;2913;51.120;6.772;2022-09-06T03:02:55;14.45;;;6.60;;
5774;SDS011;2913;51.120;6.772;2022-09-06T03:05:24;14.32;;;6.78;;
5774;SDS011;2913;51.120;6.772;2022-09-06T03:07:51;13.00;;;7.05;;
5774;SDS011;2913;51.120;6.772;2022-09-06T03:10:18;13.35;;;5.95;;
5774;SDS011;2913;51.120;6.772;2022-09-06T03:12:48;15.32;;;6.80;;
5774;SDS011;2913;51.120;6.772;2022-09-06T03:15:14;18.63;;;6.43;;
5774;SDS011;2913;51.120;6.772;2022-09-06T03:17:41;23.33;;;6.53;;
5774;SDS011;2913;51.120;6.772;2022-09-06T03:20:07;12.93;;;6.80;;
5774;SDS011;2913;51.120;6.772;2022-09-06T03:22:35;17.77;;;7.82;;
5774;SDS011;2913;51.120;6.772;2022-09-06T03:25:04;15.80;;;6.95;;
5774;SDS011;2913;51.120;6.772;2022-09-06T03:27:31;22.50;;;7.53;;
5774;SDS011;2913;51.120;6.772;2022-09-06T03:29:59;15.18;;;8.05;;
5774;SDS011;2913;51.120;6.772;2022-09-06T03:32:25;14.75;;;7.35;;
5774;SDS011;2913;51.120;6.772;2022-09-06T03:34:55;16.27;;;7.30;;
5774;SDS011;2913;51.120;6.772;2022-09-06T03:37:21;10.95;;;7.03;;
5774;SDS011;2913;51.120;6.772;2022-09-06T03:39:46;16.75;;;8.35;;
5774;SDS011;2913;51.120;6.772;2022-09-06T03:42:12;23.58;;;8.52;;
5774;SDS011;2913;51.120;6.772;2022-09-06T03:44:38;16.20;;;8.57;;
5774;SDS011;2913;51.120;6.772;2022-09-06T03:47:03;18.77;;;8.85;;
5774;SDS011;2913;51.120;6.772;2022-09-06T03:49:29;22.48;;;9.63;;
5774;SDS011;2913;51.120;6.772;2022-09-06T03:51:55;26.27;;;8.77;;
5774;SDS011;2913;51.120;6.772;2022-09-06T03:54:23;19.75;;;9.30;;
5774;SDS011;2913;51.120;6.772;2022-09-06T03:56:52;19.45;;;10.27;;
5774;SDS011;2913;51.120;6.772;2022-09-06T03:59:20;19.80;;;10.88;;
5774;SDS011;2913;51.120;6.772;2022-09-06T04:01:48;20.52;;;9.95;;
5774;SDS011;2913;51.120;6.772;2022-09-06T04:04:14;16.80;;;10.23;;
5774;SDS011;2913;51.120;6.772;2022-09-06T04:06:44;20.10;;;10.00;;
5774;SDS011;2913;51.120;6.772;2022-09-06T04:09:10;19.77;;;9.55;;
5774;SDS011;2913;51.120;6.772;2022-09-06T04:11:35;21.40;;;9.93;;
5774;SDS011;2913;51.120;6.772;2022-09-06T04:14:01;29.83;;;10.95;;
5774;SDS011;2913;51.120;6.772;2022-09-06T04:16:27;22.70;;;10.23;;
5774;SDS011;2913;51.120;6.772;2022-09-06T04:18:57;23.10;;;9.30;;
5774;SDS011;2913;51.120;6.772;2022-09-06T04:21:25;17.70;;;9.23;;
5774;SDS011;2913;51.120;6.772;2022-09-06T04:23:53;15.43;;;9.50;;
5774;SDS011;2913;51.120;6.772;2022-09-06T04:26:18;16.10;;;8.88;;
5774;SDS011;2913;51.120;6.772;2022-09-06T04:28:44;18.20;;;8.73;;
5774;SDS011;2913;51.120;6.772;2022-09-06T04:31:10;18.10;;;10.40;;
5774;SDS011;2913;51.120;6.772;2022-09-06T04:33:36;14.68;;;8.60;;
5774;SDS011;2913;51.120;6.772;2022-09-06T04:36:03;21.55;;;9.90;;
5774;SDS011;2913;51.120;6.772;2022-09-06T04:38:34;16.92;;;9.55;;
5774;SDS011;2913;51.120;6.772;2022-09-06T04:41:02;16.85;;;9.40;;
5774;SDS011;2913;51.120;6.772;2022-09-06T04:43:34;19.77;;;9.77;;
5774;SDS011;2913;51.120;6.772;2022-09-06T04:46:08;25.25;;;10.23;;
5774;SDS011;2913;51.120;6.772;2022-09-06T04:48:44;18.38;;;9.27;;
5774;SDS011;2913;51.120;6.772;2022-09-06T04:51:15;20.73;;;10.27;;
5774;SDS011;2913;51.120;6.772;2022-09-06T04:53:40;22.15;;;10.57;;
5774;SDS011;2913;51.120;6.772;2022-09-06T04:56:29;21.58;;;10.55;;
5774;SDS011;2913;51.120;6.772;2022-09-06T04:58:54;24.65;;;10.13;;
5774;SDS011;2913;51.120;6.772;2022-09-06T05:01:20;24.35;;;10.45;;
5774;SDS011;2913;51.120;6.772;2022-09-06T05:03:46;24.25;;;10.13;;
5774;SDS011;2913;51.120;6.772;2022-09-06T05:06:13;23.50;;;10.93;;
5774;SDS011;2913;51.120;6.772;2022-09-06T05:08:44;18.67;;;10.13;;
5774;SDS011;2913;51.120;6.772;2022-09-06T05:11:13;21.00;;;10.45;;
5774;SDS011;2913;51.120;6.772;2022-09-06T05:13:41;20.92;;;10.27;;
5774;SDS011;2913;51.120;6.772;2022-09-06T05:16:07;19.42;;;9.50;;
5774;SDS011;2913;51.120;6.772;2022-09-06T05:18:35;19.40;;;9.73;;
5774;SDS011;2913;51.120;6.772;2022-09-06T05:21:04;27.08;;;10.13;;
5774;SDS011;2913;51.120;6.772;2022-09-06T05:23:29;20.90;;;9.80;;
5774;SDS011;2913;51.120;6.772;2022-09-06T05:25:55;19.10;;;10.18;;
5774;SDS011;2913;51.120;6.772;2022-09-06T05:28:21;18.73;;;9.93;;
5774;SDS011;2913;51.120;6.772;2022-09-06T05:30:47;23.25;;;10.25;;
5774;SDS011;2913;51.120;6.772;2022-09-06T05:33:13;26.67;;;10.80;;
5774;SDS011;2913;51.120;6.772;2022-09-06T05:35:43;19.63;;;9.48;;
5774;SDS011;2913;51.120;6.772;2022-09-06T05:38:08;19.70;;;8.98;;
5774;SDS011;2913;51.120;6.772;2022-09-06T05:40:36;29.95;;;9.90;;
5774;SDS011;2913;51.120;6.772;2022-09-06T05:43:04;17.77;;;9.85;;
5774;SDS011;2913;51.120;6.772;2022-09-06T05:45:30;22.30;;;9.52;;
5774;SDS011;2913;51.120;6.772;2022-09-06T05:47:57;14.70;;;9.15;;
5774;SDS011;2913;51.120;6.772;2022-09-06T05:50:23;22.95;;;9.77;;
5774;SDS011;2913;51.120;6.772;2022-09-06T05:52:49;27.60;;;9.75;;
5774;SDS011;2913;51.120;6.772;2022-09-06T05:55:19;18.48;;;9.43;;
5774;SDS011;2913;51.120;6.772;2022-09-06T05:57:45;17.63;;;8.95;;
5774;SDS011;2913;51.120;6.772;2022-09-06T06:00:11;20.98;;;9.65;;
5774;SDS011;2913;51.120;6.772;2022-09-06T06:02:37;22.80;;;8.80;;
5774;SDS011;2913;51.120;6.772;2022-09-06T06:05:03;18.13;;;8.82;;
5774;SDS011;2913;51.120;6.772;2022-09-06T06:07:32;22.90;;;9.40;;
5774;SDS011;2913;51.120;6.772;2022-09-06T06:09:57;13.70;;;7.97;;
5774;SDS011;2913;51.120;6.772;2022-09-06T06:12:25;18.98;;;8.48;;
5774;SDS011;2913;51.120;6.772;2022-09-06T06:14:51;23.92;;;9.32;;
5774;SDS011;2913;51.120;6.772;2022-09-06T06:17:17;23.45;;;8.75;;
5774;SDS011;2913;51.120;6.772;2022-09-06T06:19:45;17.23;;;9.02;;
5774;SDS011;2913;51.120;6.772;2022-09-06T06:22:10;24.25;;;9.13;;
5774;SDS011;2913;51.120;6.772;2022-09-06T06:24:36;16.10;;;8.93;;
5774;SDS011;2913;51.120;6.772;2022-09-06T06:27:02;27.45;;;9.57;;
5774;SDS011;2913;51.120;6.772;2022-09-06T06:29:32;17.38;;;9.35;;
5774;SDS011;2913;51.120;6.772;2022-09-06T06:31:57;20.23;;;10.25;;
5774;SDS011;2913;51.120;6.772;2022-09-06T06:34:23;19.08;;;9.40;;
5774;SDS011;2913;51.120;6.772;2022-09-06T06:36:49;24.83;;;9.30;;
5774;SDS011;2913;51.120;6.772;2022-09-06T06:39:14;14.18;;;9.68;;
5774;SDS011;2913;51.120;6.772;2022-09-06T06:41:43;17.02;;;9.43;;
5774;SDS011;2913;51.120;6.772;2022-09-06T06:44:09;16.30;;;7.30;;
5774;SDS011;2913;51.120;6.772;2022-09-06T06:46:36;14.45;;;7.25;;
5774;SDS011;2913;51.120;6.772;2022-09-06T06:49:02;16.25;;;9.50;;
5774;SDS011;2913;51.120;6.772;2022-09-06T06:51:29;19.42;;;9.13;;
5774;SDS011;2913;51.120;6.772;2022-09-06T06:53:57;13.80;;;7.90;;
5774;SDS011;2913;51.120;6.772;2022-09-06T06:56:29;21.45;;;8.38;;
5774;SDS011;2913;51.120;6.772;2022-09-06T06:58:56;17.52;;;10.35;;
5774;SDS011;2913;51.120;6.772;2022-09-06T07:01:23;18.48;;;9.57;;
5774;SDS011;2913;51.120;6.772;2022-09-06T07:03:50;25.48;;;10.10;;
5774;SDS011;2913;51.120;6.772;2022-09-06T07:06:16;22.88;;;10.10;;
5774;SDS011;2913;51.120;6.772;2022-09-06T07:08:45;15.20;;;7.90;;
5774;SDS011;2913;51.120;6.772;2022-09-06T07:11:12;20.88;;;9.35;;
5774;SDS011;2913;51.120;6.772;2022-09-06T07:13:39;27.77;;;9.80;;
5774;SDS011;2913;51.120;6.772;2022-09-06T07:16:13;20.02;;;8.88;;
5774;SDS011;2913;51.120;6.772;2022-09-06T07:18:39;22.50;;;10.10;;
5774;SDS011;2913;51.120;6.772;2022-09-06T07:21:10;18.48;;;7.60;;
5774;SDS011;2913;51.120;6.772;2022-09-06T07:23:39;23.83;;;8.75;;
5774;SDS011;2913;51.120;6.772;2022-09-06T07:26:12;20.95;;;9.30;;
5774;SDS011;2913;51.120;6.772;2022-09-06T07:28:44;19.30;;;8.23;;
5774;SDS011;2913;51.120;6.772;2022-09-06T07:31:15;18.38;;;7.07;;
5774;SDS011;2913;51.120;6.772;2022-09-06T07:33:44;19.63;;;8.20;;
5774;SDS011;2913;51.120;6.772;2022-09-06T07:36:09;19.85;;;8.05;;
5774;SDS011;2913;51.120;6.772;2022-09-06T07:38:35;17.77;;;6.93;;
5774;SDS011;2913;51.120;6.772;2022-09-06T07:41:02;23.25;;;7.13;;
5774;SDS011;2913;51.120;6.772;2022-09-06T07:43:30;17.67;;;6.18;;
5774;SDS011;2913;51.120;6.772;2022-09-06T07:46:00;16.80;;;6.57;;
5774;SDS011;2913;51.120;6.772;2022-09-06T07:48:29;12.18;;;6.65;;
5774;SDS011;2913;51.120;6.772;2022-09-06T07:56:06;20.50;;;5.22;;
5774;SDS011;2913;51.120;6.772;2022-09-06T07:58:34;10.48;;;4.68;;
5774;SDS011;2913;51.120;6.772;2022-09-06T08:01:14;12.70;;;4.10;;
5774;SDS011;2913;51.120;6.772;2022-09-06T08:03:50;8.95;;;3.83;;
5774;SDS011;2913;51.120;6.772;2022-09-06T08:06:16;8.68;;;3.83;;
5774;SDS011;2913;51.120;6.772;2022-09-06T08:08:42;12.30;;;3.92;;
5774;SDS011;2913;51.120;6.772;2022-09-06T08:11:07;14.30;;;3.85;;
5774;SDS011;2913;51.120;6.772;2022-09-06T08:13:34;9.52;;;3.45;;
5774;SDS011;2913;51.120;6.772;2022-09-06T08:16:06;12.15;;;3.45;;
5774;SDS011;2913;51.120;6.772;2022-09-06T08:18:35;7.97;;;3.55;;
5774;SDS011;2913;51.120;6.772;2022-09-06T08:21:21;8.73;;;3.30;;
5774;SDS011;2913;51.120;6.772;2022-09-06T08:23:53;6.55;;;3.30;;
5774;SDS011;2913;51.120;6.772;2022-09-06T08:26:29;10.77;;;2.85;;
5774;SDS011;2913;51.120;6.772;2022-09-06T08:28:59;8.20;;;4.22;;
5774;SDS011;2913;51.120;6.772;2022-09-06T08:31:27;18.70;;;3.20;;
5774;SDS011;2913;51.120;6.772;2022-09-06T08:33:54;6.43;;;2.83;;
5774;SDS011;2913;51.120;6.772;2022-09-06T08:36:23;7.88;;;2.85;;
5774;SDS011;2913;51.120;6.772;2022-09-06T08:38:59;12.27;;;2.70;;
5774;SDS011;2913;51.120;6.772;2022-09-06T08:44:36;7.95;;;2.60;;
5774;SDS011;2913;51.120;6.772;2022-09-06T08:47:05;10.23;;;2.70;;
5774;SDS011;2913;51.120;6.772;2022-09-06T08:49:36;3.45;;;2.33;;
5774;SDS011;2913;51.120;6.772;2022-09-06T09:00:22;6.47;;;2.30;;
5774;SDS011;2913;51.120;6.772;2022-09-06T09:02:53;8.57;;;2.30;;
5774;SDS011;2913;51.120;6.772;2022-09-06T09:05:42;6.97;;;2.35;;
5774;SDS011;2913;51.120;6.772;2022-09-06T09:11:00;9.15;;;2.65;;
5774;SDS011;2913;51.120;6.772;2022-09-06T09:13:29;5.47;;;2.40;;
5774;SDS011;2913;51.120;6.772;2022-09-06T09:16:00;8.57;;;2.40;;
5774;SDS011;2913;51.120;6.772;2022-09-06T09:18:27;14.77;;;2.53;;
5774;SDS011;2913;51.120;6.772;2022-09-06T09:20:57;6.50;;;2.30;;
5774;SDS011;2913;51.120;6.772;2022-09-06T09:23:23;13.55;;;2.13;;
5774;SDS011;2913;51.120;6.772;2022-09-06T09:25:50;11.23;;;2.50;;
5774;SDS011;2913;51.120;6.772;2022-09-06T09:28:21;7.43;;;2.30;;
5774;SDS011;2913;51.120;6.772;2022-09-06T09:30:51;8.20;;;2.42;;
5774;SDS011;2913;51.120;6.772;2022-09-06T09:33:20;9.02;;;2.33;;
5774;SDS011;2913;51.120;6.772;2022-09-06T09:35:49;6.47;;;2.35;;
5774;SDS011;2913;51.120;6.772;2022-09-06T09:38:57;7.82;;;2.40;;
5774;SDS011;2913;51.120;6.772;2022-09-06T09:41:22;8.85;;;2.10;;
5774;SDS011;2913;51.120;6.772;2022-09-06T09:43:57;7.07;;;2.50;;
5774;SDS011;2913;51.120;6.772;2022-09-06T09:46:35;7.22;;;2.50;;
5774;SDS011;2913;51.120;6.772;2022-09-06T09:52:05;7.85;;;2.15;;
5774;SDS011;2913;51.120;6.772;2022-09-06T09:54:36;4.28;;;2.30;;
5774;SDS011;2913;51.120;6.772;2022-09-06T09:57:08;4.20;;;2.00;;
5774;SDS011;2913;51.120;6.772;2022-09-06T10:02:25;5.85;;;2.28;;
5774;SDS011;2913;51.120;6.772;2022-09-06T10:07:31;5.82;;;2.28;;
5774;SDS011;2913;51.120;6.772;2022-09-06T10:09:58;8.57;;;2.33;;
5774;SDS011;2913;51.120;6.772;2022-09-06T10:12:31;4.43;;;2.15;;
5774;SDS011;2913;51.120;6.772;2022-09-06T10:15:02;5.60;;;2.20;;
5774;SDS011;2913;51.120;6.772;2022-09-06T10:17:31;10.45;;;2.42;;
5774;SDS011;2913;51.120;6.772;2022-09-06T10:20:02;3.90;;;1.92;;
5774;SDS011;2913;51.120;6.772;2022-09-06T10:25:17;11.13;;;2.25;;
5774;SDS011;2913;51.120;6.772;2022-09-06T10:34:29;6.68;;;2.22;;
5774;SDS011;2913;51.120;6.772;2022-09-06T10:40:09;7.03;;;2.40;;
5774;SDS011;2913;51.120;6.772;2022-09-06T10:42:47;24.90;;;2.78;;
5774;SDS011;2913;51.120;6.772;2022-09-06T10:45:20;13.02;;;2.63;;
5774;SDS011;2913;51.120;6.772;2022-09-06T10:47:54;7.05;;;2.53;;
5774;SDS011;2913;51.120;6.772;2022-09-06T10:56:10;11.70;;;2.78;;
5774;SDS011;2913;51.120;6.772;2022-09-06T10:58:50;6.45;;;3.00;;
5774;SDS011;2913;51.120;6.772;2022-09-06T11:03:58;9.70;;;3.15;;
5774;SDS011;2913;51.120;6.772;2022-09-06T11:06:28;16.58;;;3.35;;
5774;SDS011;2913;51.120;6.772;2022-09-06T11:11:43;10.68;;;2.70;;
5774;SDS011;2913;51.120;6.772;2022-09-06T11:14:14;8.93;;;2.80;;
5774;SDS011;2913;51.120;6.772;2022-09-06T11:16:47;6.72;;;3.05;;
5774;SDS011;2913;51.120;6.772;2022-09-06T11:19:20;10.02;;;3.15;;
5774;SDS011;2913;51.120;6.772;2022-09-06T11:22:00;9.55;;;3.53;;
5774;SDS011;2913;51.120;6.772;2022-09-06T11:27:35;7.80;;;3.13;;
5774;SDS011;2913;51.120;6.772;2022-09-06T11:30:05;5.53;;;2.83;;
5774;SDS011;2913;51.120;6.772;2022-09-06T11:32:49;4.70;;;2.60;;
5774;SDS011;2913;51.120;6.772;2022-09-06T11:35:29;8.38;;;2.80;;
5774;SDS011;2913;51.120;6.772;2022-09-06T11:38:18;9.45;;;3.17;;
5774;SDS011;2913;51.120;6.772;2022-09-06T11:40:52;9.47;;;3.33;;
5774;SDS011;2913;51.120;6.772;2022-09-06T11:56:35;9.90;;;2.80;;
5774;SDS011;2913;51.120;6.772;2022-09-06T12:04:20;11.25;;;3.03;;
5774;SDS011;2913;51.120;6.772;2022-09-06T12:07:10;24.90;;;3.67;;
5774;SDS011;2913;51.120;6.772;2022-09-06T12:09:38;10.73;;;3.65;;
5774;SDS011;2913;51.120;6.772;2022-09-06T12:12:06;15.75;;;3.00;;
5774;SDS011;2913;51.120;6.772;2022-09-06T12:14:37;8.65;;;3.40;;
5774;SDS011;2913;51.120;6.772;2022-09-06T12:25:01;8.50;;;3.00;;
5774;SDS011;2913;51.120;6.772;2022-09-06T12:28:18;6.85;;;3.08;;
5774;SDS011;2913;51.120;6.772;2022-09-06T12:30:30;8.70;;;2.67;;
5774;SDS011;2913;51.120;6.772;2022-09-06T12:32:56;9.68;;;3.05;;
5774;SDS011;2913;51.120;6.772;2022-09-06T12:35:26;10.15;;;3.08;;
5774;SDS011;2913;51.120;6.772;2022-09-06T12:40:23;12.38;;;3.75;;
5774;SDS011;2913;51.120;6.772;2022-09-06T12:42:56;12.40;;;3.10;;
5774;SDS011;2913;51.120;6.772;2022-09-06T12:45:26;12.23;;;2.92;;
5774;SDS011;2913;51.120;6.772;2022-09-06T12:48:07;18.20;;;2.90;;
5774;SDS011;2913;51.120;6.772;2022-09-06T12:50:35;12.15;;;3.13;;
5774;SDS011;2913;51.120;6.772;2022-09-06T12:53:02;8.65;;;3.05;;
5774;SDS011;2913;51.120;6.772;2022-09-06T12:55:41;17.88;;;3.28;;
5774;SDS011;2913;51.120;6.772;2022-09-06T12:58:08;6.85;;;2.22;;
5774;SDS011;2913;51.120;6.772;2022-09-06T13:00:36;6.68;;;2.60;;
5774;SDS011;2913;51.120;6.772;2022-09-06T13:03:28;8.00;;;3.00;;
5774;SDS011;2913;51.120;6.772;2022-09-06T13:05:55;10.00;;;2.90;;
5774;SDS011;2913;51.120;6.772;2022-09-06T13:08:30;9.45;;;2.30;;
5774;SDS011;2913;51.120;6.772;2022-09-06T13:13:35;6.43;;;2.58;;
5774;SDS011;2913;51.120;6.772;2022-09-06T13:16:01;16.35;;;2.95;;
5774;SDS011;2913;51.120;6.772;2022-09-06T13:18:34;12.80;;;2.53;;
5774;SDS011;2913;51.120;6.772;2022-09-06T13:21:07;7.32;;;2.20;;
5774;SDS011;2913;51.120;6.772;2022-09-06T13:23:45;10.63;;;2.65;;
5774;SDS011;2913;51.120;6.772;2022-09-06T13:26:13;5.18;;;2.83;;
5774;SDS011;2913;51.120;6.772;2022-09-06T13:28:55;5.85;;;2.35;;
5774;SDS011;2913;51.120;6.772;2022-09-06T13:31:23;7.05;;;2.30;;
5774;SDS011;2913;51.120;6.772;2022-09-06T13:33:55;15.40;;;2.47;;
5774;SDS011;2913;51.120;6.772;2022-09-06T13:36:23;9.68;;;2.33;;
5774;SDS011;2913;51.120;6.772;2022-09-06T13:38:55;25.48;;;2.60;;
5774;SDS011;2913;51.120;6.772;2022-09-06T13:46:41;10.80;;;2.75;;
5774;SDS011;2913;51.120;6.772;2022-09-06T13:49:07;12.38;;;3.03;;
5774;SDS011;2913;51.120;6.772;2022-09-06T13:51:38;7.88;;;2.00;;
5774;SDS011;2913;51.120;6.772;2022-09-06T13:54:07;10.32;;;2.35;;
5774;SDS011;2913;51.120;6.772;2022-09-06T13:56:35;8.38;;;2.40;;
5774;SDS011;2913;51.120;6.772;2022-09-06T13:59:02;5.18;;;2.10;;
5774;SDS011;2913;51.120;6.772;2022-09-06T14:01:28;8.95;;;1.60;;
5774;SDS011;2913;51.120;6.772;2022-09-06T14:03:54;10.23;;;1.83;;
5774;SDS011;2913;51.120;6.772;2022-09-06T14:06:23;7.93;;;1.50;;
5774;SDS011;2913;51.120;6.772;2022-09-06T14:08:49;6.70;;;2.25;;
5774;SDS011;2913;51.120;6.772;2022-09-06T14:11:14;5.30;;;1.30;;
5774;SDS011;2913;51.120;6.772;2022-09-06T14:13:40;7.95;;;1.67;;
5774;SDS011;2913;51.120;6.772;2022-09-06T14:16:09;5.50;;;1.50;;
5774;SDS011;2913;51.120;6.772;2022-09-06T14:18:35;9.23;;;1.50;;
5774;SDS011;2913;51.120;6.772;2022-09-06T14:21:00;7.63;;;1.42;;
5774;SDS011;2913;51.120;6.772;2022-09-06T14:23:26;15.90;;;2.15;;
5774;SDS011;2913;51.120;6.772;2022-09-06T14:25:56;4.38;;;1.50;;
5774;SDS011;2913;51.120;6.772;2022-09-06T14:28:23;2.17;;;1.50;;
5774;SDS011;2913;51.120;6.772;2022-09-06T14:30:49;6.00;;;1.23;;
5774;SDS011;2913;51.120;6.772;2022-09-06T14:33:18;5.25;;;1.23;;
5774;SDS011;2913;51.120;6.772;2022-09-06T14:35:46;4.65;;;1.63;;
5774;SDS011;2913;51.120;6.772;2022-09-06T14:38:15;13.10;;;1.40;;
5774;SDS011;2913;51.120;6.772;2022-09-06T14:40:40;5.32;;;1.70;;
5774;SDS011;2913;51.120;6.772;2022-09-06T14:43:08;8.80;;;2.45;;
5774;SDS011;2913;51.120;6.772;2022-09-06T14:45:34;7.35;;;1.90;;
5774;SDS011;2913;51.120;6.772;2022-09-06T14:48:03;7.40;;;2.00;;
5774;SDS011;2913;51.120;6.772;2022-09-06T14:50:31;12.77;;;2.20;;
5774;SDS011;2913;51.120;6.772;2022-09-06T14:52:56;4.50;;;1.80;;
5774;SDS011;2913;51.120;6.772;2022-09-06T14:55:22;8.52;;;2.75;;
5774;SDS011;2913;51.120;6.772;2022-09-06T14:57:48;5.10;;;1.70;;
5774;SDS011;2913;51.120;6.772;2022-09-06T15:00:14;9.95;;;1.90;;
5774;SDS011;2913;51.120;6.772;2022-09-06T15:02:41;5.13;;;1.80;;
5774;SDS011;2913;51.120;6.772;2022-09-06T15:05:10;16.90;;;2.95;;
5774;SDS011;2913;51.120;6.772;2022-09-06T15:07:38;5.95;;;1.85;;
5774;SDS011;2913;51.120;6.772;2022-09-06T15:10:03;9.55;;;2.30;;
5774;SDS011;2913;51.120;6.772;2022-09-06T15:12:29;6.97;;;1.80;;
5774;SDS011;2913;51.120;6.772;2022-09-06T15:14:57;6.93;;;1.90;;
5774;SDS011;2913;51.120;6.772;2022-09-06T15:17:23;6.32;;;2.00;;
5774;SDS011;2913;51.120;6.772;2022-09-06T15:19:49;8.40;;;1.77;;
5774;SDS011;2913;51.120;6.772;2022-09-06T15:22:14;7.57;;;1.83;;
5774;SDS011;2913;51.120;6.772;2022-09-06T15:24:43;3.58;;;1.95;;
5774;SDS011;2913;51.120;6.772;2022-09-06T15:27:09;9.63;;;2.08;;
5774;SDS011;2913;51.120;6.772;2022-09-06T15:29:36;5.07;;;1.85;;
5774;SDS011;2913;51.120;6.772;2022-09-06T15:32:02;2.65;;;1.80;;
5774;SDS011;2913;51.120;6.772;2022-09-06T15:34:30;10.05;;;1.90;;
5774;SDS011;2913;51.120;6.772;2022-09-06T15:37:00;7.63;;;2.10;;
5774;SDS011;2913;51.120;6.772;2022-09-06T15:39:26;4.07;;;1.90;;
5774;SDS011;2913;51.120;6.772;2022-09-06T15:41:54;4.03;;;2.05;;
5774;SDS011;2913;51.120;6.772;2022-09-06T15:44:22;3.17;;;2.25;;
5774;SDS011;2913;51.120;6.772;2022-09-06T15:49:25;10.40;;;2.58;;
5774;SDS011;2913;51.120;6.772;2022-09-06T15:51:59;11.35;;;2.08;;
5774;SDS011;2913;51.120;6.772;2022-09-06T15:54:26;4.95;;;2.03;;
5774;SDS011;2913;51.120;6.772;2022-09-06T15:57:11;5.93;;;2.10;;
5774;SDS011;2913;51.120;6.772;2022-09-06T15:59:38;15.63;;;2.00;;
5774;SDS011;2913;51.120;6.772;2022-09-06T16:02:06;6.53;;;2.28;;
5774;SDS011;2913;51.120;6.772;2022-09-06T16:04:34;6.85;;;1.92;;
5774;SDS011;2913;51.120;6.772;2022-09-06T16:07:00;4.80;;;2.10;;
5774;SDS011;2913;51.120;6.772;2022-09-06T16:09:31;9.68;;;2.38;;
5774;SDS011;2913;51.120;6.772;2022-09-06T16:11:56;11.70;;;2.75;;
5774;SDS011;2913;51.120;6.772;2022-09-06T16:14:22;3.63;;;1.92;;
5774;SDS011;2913;51.120;6.772;2022-09-06T16:16:48;9.27;;;2.15;;
5774;SDS011;2913;51.120;6.772;2022-09-06T16:19:15;8.30;;;2.13;;
5774;SDS011;2913;51.120;6.772;2022-09-06T16:21:43;6.80;;;1.90;;
5774;SDS011;2913;51.120;6.772;2022-09-06T16:24:11;5.22;;;2.10;;
5774;SDS011;2913;51.120;6.772;2022-09-06T16:26:38;5.38;;;1.80;;
5774;SDS011;2913;51.120;6.772;2022-09-06T16:29:06;8.00;;;2.40;;
5774;SDS011;2913;51.120;6.772;2022-09-06T16:31:33;9.40;;;2.47;;
5774;SDS011;2913;51.120;6.772;2022-09-06T16:33:59;6.00;;;2.00;;
5774;SDS011;2913;51.120;6.772;2022-09-06T16:36:27;3.67;;;1.80;;
5774;SDS011;2913;51.120;6.772;2022-09-06T16:38:53;8.70;;;1.85;;
5774;SDS011;2913;51.120;6.772;2022-09-06T16:41:39;4.13;;;1.60;;
5774;SDS011;2913;51.120;6.772;2022-09-06T16:44:10;5.78;;;1.80;;
5774;SDS011;2913;51.120;6.772;2022-09-06T16:46:40;6.72;;;1.90;;
5774;SDS011;2913;51.120;6.772;2022-09-06T16:51:40;4.50;;;2.03;;
5774;SDS011;2913;51.120;6.772;2022-09-06T16:54:07;4.18;;;2.60;;
5774;SDS011;2913;51.120;6.772;2022-09-06T16:56:34;17.38;;;6.30;;
5774;SDS011;2913;51.120;6.772;2022-09-06T16:59:03;8.80;;;3.33;;
5774;SDS011;2913;51.120;6.772;2022-09-06T17:01:34;10.90;;;3.25;;
5774;SDS011;2913;51.120;6.772;2022-09-06T17:04:05;14.18;;;2.40;;
5774;SDS011;2913;51.120;6.772;2022-09-06T17:06:31;9.88;;;2.80;;
5774;SDS011;2913;51.120;6.772;2022-09-06T17:08:59;6.00;;;2.75;;
5774;SDS011;2913;51.120;6.772;2022-09-06T17:11:28;11.40;;;2.45;;
5774;SDS011;2913;51.120;6.772;2022-09-06T17:13:56;6.40;;;2.40;;
5774;SDS011;2913;51.120;6.772;2022-09-06T17:16:22;9.02;;;2.58;;
5774;SDS011;2913;51.120;6.772;2022-09-06T17:19:09;10.07;;;2.33;;
5774;SDS011;2913;51.120;6.772;2022-09-06T17:21:35;10.90;;;2.50;;
5774;SDS011;2913;51.120;6.772;2022-09-06T17:24:03;8.02;;;2.72;;
5774;SDS011;2913;51.120;6.772;2022-09-06T17:26:34;5.43;;;2.10;;
5774;SDS011;2913;51.120;6.772;2022-09-06T17:29:02;12.98;;;2.50;;
5774;SDS011;2913;51.120;6.772;2022-09-06T17:31:28;5.97;;;2.70;;
5774;SDS011;2913;51.120;6.772;2022-09-06T17:33:54;6.43;;;2.97;;
5774;SDS011;2913;51.120;6.772;2022-09-06T17:36:21;4.15;;;2.20;;
5774;SDS011;2913;51.120;6.772;2022-09-06T17:38:51;5.35;;;2.22;;